createdAt,value
2019-04-26T00:01:26.765Z,15.40
2019-04-26T00:03:58.212Z,15.30
2019-04-26T00:06:30.296Z,15.30
2019-04-26T00:09:15.849Z,15.30
2019-04-26T00:12:12.175Z,15.20
2019-04-26T00:15:01.395Z,15.20
2019-04-26T00:17:37.738Z,15.30
2019-04-26T00:20:11.458Z,15.30
2019-04-26T00:22:42.411Z,15.20
2019-04-26T00:25:14.430Z,15.20
2019-04-26T00:27:45.880Z,15.20
2019-04-26T00:30:17.433Z,15.20
2019-04-26T00:32:48.578Z,15.20
2019-04-26T00:35:19.971Z,15.20
2019-04-26T00:37:51.084Z,15.20
2019-04-26T00:40:22.474Z,15.10
2019-04-26T00:42:57.554Z,15.10
2019-04-26T00:45:31.396Z,15.10
2019-04-26T00:48:03.109Z,15.00
2019-04-26T00:50:35.999Z,15.00
2019-04-26T00:53:08.221Z,14.70
2019-04-26T00:55:39.596Z,14.80
2019-04-26T00:58:11.182Z,14.70
2019-04-26T01:00:43.792Z,14.70
2019-04-26T01:03:15.342Z,14.60
2019-04-26T01:05:54.054Z,14.50
2019-04-26T01:08:19.990Z,14.50
2019-04-26T01:10:51.340Z,14.60
2019-04-26T01:13:22.683Z,14.70
2019-04-26T01:15:53.845Z,14.70
2019-04-26T01:18:28.239Z,14.70
2019-04-26T01:21:01.585Z,14.60
2019-04-26T01:23:35.663Z,14.70
2019-04-26T01:26:11.319Z,14.70
2019-04-26T01:29:40.948Z,14.60
2019-04-26T01:32:13.903Z,14.60
2019-04-26T01:34:46.832Z,14.70
2019-04-26T01:37:19.257Z,14.80
2019-04-26T01:39:57.483Z,14.80
2019-04-26T01:42:54.118Z,14.90
2019-04-26T01:45:38.118Z,14.80
2019-04-26T01:48:32.507Z,14.80
2019-04-26T01:51:04.042Z,14.80
2019-04-26T01:53:35.619Z,14.80
2019-04-26T01:56:06.999Z,14.90
2019-04-26T01:58:38.594Z,14.80
2019-04-26T02:01:23.662Z,14.80
2019-04-26T02:03:55.103Z,14.80
2019-04-26T02:06:32.021Z,14.80
2019-04-26T02:09:04.944Z,14.80
2019-04-26T02:11:36.919Z,14.80
2019-04-26T02:14:08.132Z,14.80
2019-04-26T02:16:39.626Z,14.80
2019-04-26T02:19:10.847Z,14.80
2019-04-26T02:21:47.268Z,14.70
2019-04-26T02:24:44.182Z,14.80
2019-04-26T02:27:22.282Z,14.70
2019-04-26T02:29:53.629Z,14.50
2019-04-26T02:32:26.720Z,14.50
2019-04-26T02:34:58.499Z,14.40
2019-04-26T02:37:32.158Z,14.40
2019-04-26T02:40:03.022Z,14.50
2019-04-26T02:42:39.564Z,14.60
2019-04-26T02:45:36.271Z,14.60
2019-04-26T02:48:29.061Z,14.60
2019-04-26T02:51:03.904Z,14.60
2019-04-26T02:53:56.539Z,14.50
2019-04-26T02:56:37.690Z,14.40
2019-04-26T02:59:46.700Z,14.50
2019-04-26T03:02:30.256Z,14.50
2019-04-26T03:05:03.679Z,14.40
2019-04-26T03:07:48.349Z,14.50
2019-04-26T03:10:24.140Z,14.40
2019-04-26T03:12:58.266Z,14.40
2019-04-26T03:16:02.934Z,14.50
2019-04-26T03:18:55.510Z,14.40
2019-04-26T03:21:41.460Z,14.30
2019-04-26T03:24:21.739Z,14.20
2019-04-26T03:27:16.558Z,14.20
2019-04-26T03:30:17.408Z,14.20
2019-04-26T03:33:22.402Z,14.30
2019-04-26T03:36:19.149Z,14.30
2019-04-26T03:39:00.878Z,14.10
2019-04-26T03:42:03.209Z,14.20
2019-04-26T03:44:44.315Z,14.20
2019-04-26T03:47:20.629Z,14.20
2019-04-26T03:50:14.477Z,14.20
2019-04-26T03:53:19.261Z,13.40
2019-04-26T03:56:27.681Z,14.00
2019-04-26T03:59:26.970Z,14.10
2019-04-26T04:02:13.989Z,14.00
2019-04-26T04:04:59.324Z,14.00
2019-04-26T04:07:39.413Z,14.00
2019-04-26T04:10:11.608Z,14.10
2019-04-26T04:12:56.256Z,14.10
2019-04-26T04:15:41.932Z,13.90
2019-04-26T04:18:19.902Z,13.90
2019-04-26T04:21:43.151Z,14.00
2019-04-26T04:24:34.191Z,14.00
2019-04-26T04:27:19.285Z,14.10
2019-04-26T04:30:06.211Z,14.00
2019-04-26T04:32:52.090Z,14.00
2019-04-26T04:35:25.332Z,13.90
2019-04-26T04:38:09.123Z,13.80
2019-04-26T04:41:09.821Z,13.80
2019-04-26T04:43:50.770Z,13.70
2019-04-26T04:46:59.976Z,13.80
2019-04-26T04:49:44.957Z,13.80
2019-04-26T04:52:54.352Z,13.70
2019-04-26T04:55:42.815Z,13.70
2019-04-26T04:58:17.805Z,13.80
2019-04-26T05:01:46.188Z,13.90
2019-04-26T05:04:31.061Z,13.80
2019-04-26T05:07:40.832Z,13.80
2019-04-26T05:10:36.870Z,13.80
2019-04-26T05:13:36.128Z,13.80
2019-04-26T05:16:26.741Z,13.80
2019-04-26T05:19:37.648Z,13.80
2019-04-26T05:22:59.115Z,13.80
2019-04-26T05:26:34.740Z,13.80
2019-04-26T05:29:30.131Z,13.90
2019-04-26T05:32:14.417Z,13.90
2019-04-26T05:34:57.589Z,13.80
2019-04-26T05:37:51.486Z,13.90
2019-04-26T05:40:43.701Z,13.80
2019-04-26T05:43:45.253Z,13.70
2019-04-26T05:46:38.611Z,13.90
2019-04-26T05:49:55.794Z,13.90
2019-04-26T05:53:20.777Z,14.00
2019-04-26T05:56:43.665Z,14.00
2019-04-26T05:59:45.870Z,14.00
2019-04-26T06:03:04.868Z,14.00
2019-04-26T06:06:23.489Z,14.00
2019-04-26T06:10:05.669Z,14.00
2019-04-26T06:12:54.557Z,14.10
2019-04-26T06:15:44.851Z,14.00
2019-04-26T06:18:57.415Z,14.00
2019-04-26T06:22:17.805Z,14.00
2019-04-26T06:25:31.335Z,14.20
2019-04-26T06:28:10.110Z,14.20
2019-04-26T06:31:09.940Z,14.30
2019-04-26T06:34:00.865Z,14.40
2019-04-26T06:36:48.588Z,14.40
2019-04-26T06:39:46.023Z,14.50
2019-04-26T06:43:02.657Z,14.50
2019-04-26T06:47:06.588Z,14.70
2019-04-26T06:50:40.952Z,14.60
2019-04-26T06:53:43.164Z,14.60
2019-04-26T06:57:15.252Z,14.60
2019-04-26T07:00:02.318Z,14.80
2019-04-26T07:03:16.030Z,14.80
2019-04-26T07:05:50.973Z,14.90
2019-04-26T07:08:57.296Z,14.80
2019-04-26T07:11:59.470Z,14.90
2019-04-26T07:15:28.359Z,15.10
2019-04-26T07:18:27.575Z,15.10
2019-04-26T07:21:42.729Z,15.10
2019-04-26T07:25:03.616Z,15.10
2019-04-26T07:28:09.662Z,15.10
2019-04-26T07:30:57.201Z,15.20
2019-04-26T07:33:58.415Z,15.30
2019-04-26T07:37:24.309Z,15.40
2019-04-26T07:40:33.484Z,15.50
2019-04-26T07:43:42.656Z,15.70
2019-04-26T07:46:50.292Z,15.70
2019-04-26T07:50:03.490Z,15.70
2019-04-26T07:53:31.248Z,15.70
2019-04-26T07:56:19.407Z,16.20
2019-04-26T07:59:04.237Z,15.70
2019-04-26T08:02:20.426Z,15.70
2019-04-26T08:05:03.315Z,15.80
2019-04-26T08:07:41.159Z,15.90
2019-04-26T08:10:18.584Z,16.10
2019-04-26T08:13:00.082Z,16.10
2019-04-26T08:15:51.658Z,16.20
2019-04-26T08:18:35.894Z,16.10
2019-04-26T08:21:20.129Z,16.20
2019-04-26T08:24:01.582Z,16.30
2019-04-26T08:26:35.786Z,16.40
2019-04-26T08:29:08.467Z,16.60
2019-04-26T08:31:42.428Z,16.70
2019-04-26T08:34:20.633Z,16.80
2019-04-26T08:37:03.089Z,16.80
2019-04-26T08:39:45.016Z,16.90
2019-04-26T08:42:18.047Z,17.00
2019-04-26T08:45:04.389Z,17.10
2019-04-26T08:47:58.298Z,17.20
2019-04-26T08:50:34.160Z,17.30
2019-04-26T08:53:08.502Z,17.40
2019-04-26T08:55:42.412Z,17.50
2019-04-26T08:58:16.120Z,17.50
2019-04-26T09:01:06.586Z,17.60
2019-04-26T09:03:59.860Z,17.70
2019-04-26T09:06:39.340Z,17.70
2019-04-26T09:09:21.114Z,17.80
2019-04-26T09:11:59.676Z,17.80
2019-04-26T09:14:31.130Z,17.90
2019-04-26T09:17:02.688Z,18.00
2019-04-26T09:19:34.208Z,18.00
2019-04-26T09:22:13.529Z,18.10
2019-04-26T09:24:59.381Z,18.30
2019-04-26T09:27:42.126Z,18.40
2019-04-26T09:30:34.209Z,18.60
2019-04-26T09:33:26.245Z,18.60
2019-04-26T09:35:57.786Z,18.70
2019-04-26T09:38:28.852Z,18.70
2019-04-26T09:41:00.586Z,18.70
2019-04-26T09:43:54.915Z,18.70
2019-04-26T09:46:56.507Z,18.80
2019-04-26T09:49:42.215Z,19.00
2019-04-26T09:52:18.202Z,19.10
2019-04-26T09:54:49.472Z,19.00
2019-04-26T09:57:21.160Z,19.00
2019-04-26T09:59:53.120Z,19.10
2019-04-26T10:02:29.531Z,19.20
2019-04-26T10:04:58.719Z,19.10
2019-04-26T10:07:33.355Z,19.20
2019-04-26T10:10:03.208Z,19.20
2019-04-26T10:12:40.706Z,19.40
2019-04-26T10:15:31.021Z,19.40
2019-04-26T10:18:02.560Z,19.60
2019-04-26T10:20:34.262Z,19.60
2019-04-26T10:23:05.850Z,19.60
2019-04-26T10:25:37.311Z,19.60
2019-04-26T10:28:11.809Z,19.60
2019-04-26T10:30:43.892Z,19.50
2019-04-26T10:33:16.567Z,19.70
2019-04-26T10:35:47.940Z,19.80
2019-04-26T10:38:23.590Z,19.80
2019-04-26T10:40:52.727Z,19.80
2019-04-26T10:43:24.218Z,20.00
2019-04-26T10:45:55.453Z,20.00
2019-04-26T10:48:27.537Z,20.10
2019-04-26T10:50:58.432Z,20.00
2019-04-26T10:53:51.665Z,20.00
2019-04-26T10:56:40.330Z,19.90
2019-04-26T10:59:19.676Z,20.00
2019-04-26T11:01:51.088Z,20.20
2019-04-26T11:04:22.519Z,20.00
2019-04-26T11:06:53.535Z,20.20
2019-04-26T11:09:26.554Z,20.30
2019-04-26T11:11:57.892Z,20.50
2019-04-26T11:14:29.536Z,20.50
2019-04-26T11:17:00.865Z,20.40
2019-04-26T11:19:35.548Z,20.40
2019-04-26T11:22:05.380Z,20.60
2019-04-26T11:24:37.054Z,20.70
2019-04-26T11:27:09.811Z,20.60
2019-04-26T11:29:52.938Z,20.70
2019-04-26T11:32:14.056Z,20.50
2019-04-26T11:34:47.636Z,20.40
2019-04-26T11:37:19.429Z,20.60
2019-04-26T11:39:51.266Z,20.50
2019-04-26T11:42:22.749Z,20.80
2019-04-26T11:45:05.428Z,20.90
2019-04-26T11:47:26.739Z,20.90
2019-04-26T11:49:58.152Z,21.00
2019-04-26T11:52:32.133Z,21.20
2019-04-26T11:55:02.612Z,21.20
2019-04-26T11:57:34.387Z,21.30
2019-04-26T12:00:06.704Z,21.30
2019-04-26T12:02:38.567Z,21.40
2019-04-26T12:05:29.072Z,21.30
2019-04-26T12:08:06.911Z,21.30
2019-04-26T12:10:40.457Z,21.50
2019-04-26T12:13:11.394Z,21.40
2019-04-26T12:15:45.366Z,21.30
2019-04-26T12:18:18.190Z,21.40
2019-04-26T12:20:49.563Z,21.40
2019-04-26T12:23:21.880Z,21.50
2019-04-26T12:25:53.321Z,21.50
2019-04-26T12:28:24.582Z,21.40
2019-04-26T12:30:58.401Z,21.40
2019-04-26T12:33:29.603Z,21.40
2019-04-26T12:36:01.018Z,21.50
2019-04-26T12:38:32.090Z,21.40
2019-04-26T12:41:04.160Z,21.50
2019-04-26T12:43:35.392Z,21.40
2019-04-26T12:46:17.102Z,21.50
2019-04-26T12:48:50.001Z,21.60
2019-04-26T12:51:21.572Z,21.50
2019-04-26T12:53:52.997Z,21.30
2019-04-26T12:56:26.738Z,21.50
2019-04-26T12:58:58.472Z,21.80
2019-04-26T13:01:29.702Z,21.90
2019-04-26T13:04:07.501Z,21.80
2019-04-26T13:06:53.132Z,21.70
2019-04-26T13:09:26.488Z,21.70
2019-04-26T13:12:25.971Z,21.90
2019-04-26T13:15:13.242Z,22.00
2019-04-26T13:17:48.317Z,22.00
2019-04-26T13:20:19.525Z,22.00
2019-04-26T13:22:54.351Z,21.80
2019-04-26T13:25:26.527Z,21.50
2019-04-26T13:27:58.036Z,21.80
2019-04-26T13:30:33.072Z,21.80
2019-04-26T13:33:02.090Z,21.60
2019-04-26T13:35:33.176Z,21.40
2019-04-26T13:38:05.072Z,21.40
2019-04-26T13:40:40.292Z,20.60
2019-04-26T13:43:12.501Z,20.50
2019-04-26T13:46:17.958Z,20.20
2019-04-26T13:49:20.254Z,20.40
2019-04-26T13:51:51.397Z,20.40
2019-04-26T13:54:43.120Z,20.90
2019-04-26T13:57:14.653Z,21.50
2019-04-26T13:59:45.621Z,22.00
2019-04-26T14:02:17.357Z,22.30
2019-04-26T14:04:48.806Z,21.90
2019-04-26T14:07:24.129Z,21.80
2019-04-26T14:09:53.402Z,21.60
2019-04-26T14:12:24.658Z,23.10
2019-04-26T14:14:55.958Z,23.80
2019-04-26T14:17:29.803Z,23.70
2019-04-26T14:20:01.248Z,22.70
2019-04-26T14:22:40.987Z,22.00
2019-04-26T14:25:13.303Z,22.50
2019-04-26T14:27:49.901Z,22.10
2019-04-26T14:30:21.182Z,22.70
2019-04-26T14:32:57.172Z,21.70
2019-04-26T14:35:26.315Z,22.00
2019-04-26T14:37:57.490Z,22.00
2019-04-26T14:40:28.925Z,21.50
2019-04-26T14:43:06.792Z,21.50
2019-04-26T14:45:39.998Z,21.70
2019-04-26T14:48:20.130Z,22.40
2019-04-26T14:50:42.827Z,22.50
2019-04-26T14:53:14.106Z,22.60
2019-04-26T14:55:45.611Z,22.00
2019-04-26T14:58:16.745Z,21.70
2019-04-26T15:00:51.528Z,21.70
2019-04-26T15:03:51.486Z,22.20
2019-04-26T15:06:28.919Z,21.50
2019-04-26T15:08:59.778Z,20.60
2019-04-26T15:11:32.296Z,20.20
2019-04-26T15:14:04.031Z,19.90
2019-04-26T15:16:35.374Z,19.90
2019-04-26T15:19:09.936Z,19.80
2019-04-26T15:21:39.589Z,19.70
2019-04-26T15:24:12.712Z,19.90
2019-04-26T15:26:43.816Z,19.70
2019-04-26T15:29:15.091Z,19.60
2019-04-26T15:31:47.232Z,19.80
2019-04-26T15:34:19.302Z,19.70
2019-04-26T15:36:53.989Z,19.50
2019-04-26T15:39:37.319Z,19.70
2019-04-26T15:42:33.562Z,20.00
2019-04-26T15:45:10.536Z,19.90
2019-04-26T15:48:00.149Z,19.90
2019-04-26T15:50:50.254Z,19.80
2019-04-26T15:53:14.729Z,19.70
2019-04-26T15:55:46.302Z,19.50
2019-04-26T15:58:17.712Z,19.60
2019-04-26T16:00:49.091Z,19.50
2019-04-26T16:03:20.206Z,19.00
2019-04-26T16:05:51.508Z,18.80
2019-04-26T16:08:23.626Z,18.60
2019-04-26T16:10:56.279Z,18.60
2019-04-26T16:13:27.709Z,18.40
2019-04-26T16:15:58.671Z,18.40
2019-04-26T16:18:29.960Z,18.30
2019-04-26T16:21:01.972Z,18.30
2019-04-26T16:23:41.309Z,18.50
2019-04-26T16:26:08.323Z,18.10
2019-04-26T16:29:18.372Z,18.00
2019-04-26T16:32:22.053Z,17.50
2019-04-26T16:34:52.820Z,17.40
2019-04-26T16:37:24.325Z,17.50
2019-04-26T16:39:55.615Z,17.60
2019-04-26T16:42:26.909Z,17.70
2019-04-26T16:45:04.100Z,17.40
2019-04-26T16:47:35.345Z,17.40
2019-04-26T16:50:03.754Z,17.30
2019-04-26T16:52:42.382Z,17.20
2019-04-26T16:57:53.295Z,16.90
2019-04-26T17:00:16.167Z,16.80
2019-04-26T17:00:33.601Z,17.10
2019-04-26T17:02:48.352Z,16.80
2019-04-26T17:05:44.035Z,16.80
2019-04-26T17:07:54.008Z,16.80
2019-04-26T17:10:25.576Z,16.60
2019-04-26T17:12:56.507Z,16.80
2019-04-26T17:15:28.003Z,16.80
2019-04-26T17:17:59.091Z,16.60
2019-04-26T17:20:30.356Z,16.40
2019-04-26T17:23:25.424Z,16.30
2019-04-26T17:26:11.239Z,16.60
2019-04-26T17:28:42.962Z,16.60
2019-04-26T17:31:15.697Z,16.70
2019-04-26T17:33:47.203Z,16.70
2019-04-26T17:36:18.577Z,16.50
2019-04-26T17:38:50.581Z,16.40
2019-04-26T17:41:22.179Z,16.30
2019-04-26T17:44:06.199Z,16.30
2019-04-26T17:46:27.008Z,16.10
2019-04-26T17:48:58.205Z,16.20
2019-04-26T17:51:35.218Z,16.20
2019-04-26T17:54:25.414Z,16.30
2019-04-26T17:56:39.392Z,16.30
2019-04-26T17:59:10.381Z,16.30
2019-04-26T18:01:47.657Z,16.30
2019-04-26T18:04:15.373Z,16.40
2019-04-26T18:06:57.830Z,16.20
2019-04-26T18:09:39.038Z,16.10
2019-04-26T18:11:55.359Z,16.10
2019-04-26T18:14:30.348Z,16.10
2019-04-26T18:17:06.868Z,16.20
2019-04-26T18:20:05.091Z,16.20
2019-04-26T18:22:39.714Z,16.10
2019-04-26T18:25:13.025Z,16.10
2019-04-26T18:27:44.755Z,16.20
2019-04-26T18:30:16.867Z,16.00
2019-04-26T18:32:48.384Z,16.10
2019-04-26T18:35:21.580Z,16.10
2019-04-26T18:37:54.248Z,16.00
2019-04-26T18:40:25.560Z,16.00
2019-04-26T18:42:56.700Z,16.00
2019-04-26T18:45:29.717Z,15.90
2019-04-26T18:48:01.946Z,15.90
2019-04-26T18:50:36.462Z,15.80
2019-04-26T18:53:30.560Z,15.80
2019-04-26T18:56:03.434Z,15.90
2019-04-26T18:58:38.076Z,15.90
2019-04-26T19:01:10.134Z,16.00
2019-04-26T19:03:41.454Z,16.00
2019-04-26T19:06:27.131Z,16.00
2019-04-26T19:08:50.165Z,16.00
2019-04-26T19:11:19.699Z,15.90
2019-04-26T19:14:15.044Z,15.90
2019-04-26T19:17:06.274Z,15.90
2019-04-26T19:19:59.443Z,15.90
2019-04-26T19:22:32.187Z,15.90
2019-04-26T19:25:05.591Z,15.80
2019-04-26T19:27:47.379Z,15.90
2019-04-26T19:30:12.717Z,15.80
2019-04-26T19:32:44.152Z,15.70
2019-04-26T19:35:15.554Z,15.60
2019-04-26T19:37:47.460Z,15.80
2019-04-26T19:40:19.057Z,15.90
2019-04-26T19:42:55.414Z,15.80
2019-04-26T19:45:33.346Z,15.70
2019-04-26T19:48:15.820Z,15.80
2019-04-26T19:51:08.933Z,15.70
2019-04-26T19:53:59.343Z,15.60
2019-04-26T19:56:34.581Z,15.60
2019-04-26T19:59:06.268Z,15.60
2019-04-26T20:01:37.565Z,15.70
2019-04-26T20:04:08.452Z,15.80
2019-04-26T20:06:41.411Z,15.70
2019-04-26T20:09:13.655Z,15.80
2019-04-26T20:11:47.060Z,15.90
2019-04-26T20:14:19.141Z,15.90
2019-04-26T20:16:52.084Z,15.70
2019-04-26T20:19:33.976Z,15.70
2019-04-26T20:21:57.682Z,15.70
2019-04-26T20:24:28.978Z,15.70
2019-04-26T20:27:01.490Z,15.70
2019-04-26T20:29:34.304Z,15.90
2019-04-26T20:32:33.510Z,15.90
2019-04-26T20:35:13.209Z,15.80
2019-04-26T20:37:45.305Z,15.70
2019-04-26T20:40:23.274Z,15.70
2019-04-26T20:42:57.541Z,15.60
2019-04-26T20:45:38.416Z,15.60
2019-04-26T20:47:58.824Z,15.70
2019-04-26T20:50:33.459Z,15.70
2019-04-26T20:53:03.162Z,15.60
2019-04-26T20:55:34.645Z,15.50
2019-04-26T20:58:08.671Z,15.60
2019-04-26T21:00:39.188Z,15.60
2019-04-26T21:03:22.807Z,15.60
2019-04-26T21:08:25.764Z,15.70
2019-04-26T21:10:56.107Z,15.60
2019-04-26T21:13:30.901Z,15.70
2019-04-26T21:16:03.450Z,15.60
2019-04-26T21:18:40.181Z,15.60
2019-04-26T21:21:10.586Z,15.70
2019-04-26T21:23:44.007Z,15.60
2019-04-26T21:26:38.757Z,15.60
2019-04-26T21:29:20.436Z,15.50
2019-04-26T21:31:59.377Z,15.40
2019-04-26T21:34:34.676Z,15.40
2019-04-26T21:37:23.545Z,15.50
2019-04-26T21:40:16.858Z,15.50
2019-04-26T21:42:49.282Z,15.50
2019-04-26T21:45:21.671Z,15.40
2019-04-26T21:47:54.724Z,15.40
2019-04-26T21:50:29.194Z,15.50
2019-04-26T21:53:02.658Z,15.40
2019-04-26T21:55:37.206Z,15.50
2019-04-26T21:58:05.136Z,15.50
2019-04-26T22:01:03.033Z,15.50
2019-04-26T22:03:35.787Z,15.40
2019-04-26T22:06:07.184Z,15.50
2019-04-26T22:08:43.726Z,15.40
2019-04-26T22:11:19.825Z,15.40
2019-04-26T22:13:53.901Z,15.30
2019-04-26T22:16:39.493Z,15.40
2019-04-26T22:19:32.470Z,15.30
2019-04-26T22:22:16.646Z,15.30
2019-04-26T22:24:48.582Z,15.30
2019-04-26T22:27:21.735Z,15.30
2019-04-26T22:29:54.869Z,15.40
2019-04-26T22:32:26.084Z,15.30
2019-04-26T22:34:57.624Z,15.20
2019-04-26T22:37:30.257Z,15.10
2019-04-26T22:40:01.249Z,15.10
2019-04-26T22:42:39.922Z,15.10
2019-04-26T22:45:28.702Z,15.10
2019-04-26T22:48:03.434Z,15.00
2019-04-26T22:50:34.837Z,15.10
2019-04-26T22:53:06.201Z,15.10
2019-04-26T22:55:37.617Z,15.20
2019-04-26T22:58:09.064Z,15.20
2019-04-26T23:00:40.611Z,15.10
2019-04-26T23:03:13.759Z,15.10
2019-04-26T23:05:45.140Z,15.20
2019-04-26T23:08:16.669Z,15.20
2019-04-26T23:10:51.154Z,15.20
2019-04-26T23:13:30.315Z,15.20
2019-04-26T23:16:20.421Z,15.10
2019-04-26T23:19:07.304Z,15.00
2019-04-26T23:21:44.250Z,15.00
2019-04-26T23:24:15.909Z,14.90
2019-04-26T23:26:47.011Z,14.90
2019-04-26T23:29:19.038Z,14.90
2019-04-26T23:31:50.383Z,14.80
2019-04-26T23:34:22.840Z,14.80
2019-04-26T23:36:54.708Z,14.80
2019-04-26T23:39:25.932Z,14.70
2019-04-26T23:41:56.961Z,14.70
2019-04-26T23:44:28.265Z,14.80
2019-04-26T23:47:18.173Z,14.70
2019-04-26T23:49:35.921Z,14.70
2019-04-26T23:52:07.589Z,14.60
2019-04-26T23:54:38.919Z,14.60
2019-04-26T23:57:10.301Z,14.60
2019-04-26T23:59:41.430Z,14.60
